Latest Weather Observations for Biloela

IDQ60801

Issued at 7:42 am EST Wednesday 23 October 2019 (issued every 10 minutes, with the page automatically refreshed every 10 minutes)

About weather observations | Map of weather stations | Latest weather observations for QLD | Other Formats
Station Details ID: 039089 Name: THANGOOL AIRPORT Lat: -24.49 Lon: 150.57 Height: 193.1 m
Data from the previous 72 hours. | See also: Recent months at Biloela
Date/Time
EST
Temp
°C
App
Temp
°C
Dew
Point
°C
Rel
Hum
%
Delta-T
°C
Wind Press
QNH
hPa
Press
MSL
hPa
Rain since
9am
mm
Dir  Spd
km/h
Gust
km/h
Spd
kts
Gust
kts
23/07:30am 20.2 18.4 13.2 64 4.0 ESE 15 24 8 13 1023.6 1022.8 0.0
23/07:00am 18.7 17.6 13.1 70 3.2 ESE 11 15 6 8 1023.5 1022.7 0.0
23/06:30am 17.0 16.1 12.5 75 2.5 SE 9 13 5 7 1023.3 1022.5 0.0
23/06:00am 15.6 15.1 12.5 82 1.7 ESE 7 9 4 5 1023.0 1022.2 0.0
23/05:30am 13.5 12.6 11.4 87 1.1 ESE 7 9 4 5 1022.8 1022.1 0.0
23/05:00am 13.6 12.7 11.5 87 1.1 ESE 7 9 4 5 1022.6 1021.9 0.0
23/04:30am 13.9 13.0 11.2 84 1.4 E 7 9 4 5 1022.4 1021.7 0.0
23/04:00am 13.7 12.6 10.7 82 1.6 E 7 9 4 5 1022.3 1021.6 0.0
23/03:30am 14.2 13.3 11.4 83 1.5 E 7 9 4 5 1022.2 1021.5 0.0
23/03:00am 14.0 13.2 11.2 83 1.5 ENE 6 7 3 4 1022.0 1021.3 0.0
23/02:30am 14.2 13.9 11.4 83 1.5 E 4 7 2 4 1022.0 1021.3 0.0
23/02:00am 14.7 13.8 11.3 80 1.8 ENE 7 7 4 4 1022.3 1021.6 0.0
23/01:30am 14.5 13.4 10.7 78 2.0 ENE 7 9 4 5 1022.4 1021.7 0.0
23/01:00am 14.5 14.6 10.3 76 2.2 CALM 0 7 0 4 1022.5 1021.8 0.0
23/12:30am 15.3 15.5 10.7 74 2.5 CALM 0 0 0 0 1022.7 1022.0 0.0
23/12:00am 15.8 15.9 10.1 69 3.0 CALM 0 0 0 0 1023.0 1022.2 0.0
 
Date/Time
EST
Temp
°C
App
Temp
°C
Dew
Point
°C
Rel
Hum
%
Delta-T
°C
Wind Press
QNH
hPa
Press
MSL
hPa
Rain since
9am
mm
Dir  Spd
km/h
Gust
km/h
Spd
kts
Gust
kts
22/11:30pm 16.9 17.1 10.5 66 3.4 CALM 0 0 0 0 1023.1 1022.3 0.0
22/11:00pm 18.6 17.4 11.7 64 3.8 ESE 9 11 5 6 1023.3 1022.5 0.0
22/10:30pm 19.6 17.6 11.6 60 4.5 E 13 17 7 9 1023.3 1022.5 0.0
22/10:00pm 19.1 18.4 11.9 63 4.0 ENE 7 11 4 6 1023.4 1022.6 0.0
22/09:30pm 20.4 18.0 12.6 61 4.4 ENE 17 22 9 12 1023.1 1022.3 0.0
22/09:00pm 20.0 19.1 12.7 63 4.1 NE 9 13 5 7 1022.7 1022.0 0.0
22/08:30pm 20.7 19.2 13.2 62 4.3 NE 13 22 7 12 1022.4 1021.7 0.0
22/08:00pm 21.2 18.6 13.1 60 4.7 NNE 19 28 10 15 1022.0 1021.3 0.0
22/07:30pm 21.7 18.8 12.8 57 5.1 NNE 20 33 11 18 1021.6 1020.9 0.0
22/07:00pm 22.5 19.3 11.9 51 6.0 NE 20 32 11 17 1021.0 1020.3 0.0
22/06:30pm 23.4 20.7 11.8 48 6.6 NE 17 26 9 14 1020.5 1019.7 0.0
22/06:00pm 25.2 22.5 10.3 39 8.3 E 15 24 8 13 1019.9 1019.1 0.0
22/05:30pm 27.5 24.1 3.9 22 12.0 SE 11 17 6 9 1019.3 1018.5 0.0
22/05:00pm 28.1 23.6 4.4 22 12.2 ESE 17 28 9 15 1019.0 1018.2 0.0
22/04:30pm 28.5 24.7 4.1 21 12.5 SE 13 20 7 11 1018.8 1018.0 0.0
22/04:00pm 29.3 24.8 4.0 20 13.0 ESE 17 24 9 13 1018.5 1017.7 0.0
22/03:30pm 29.7 24.7 3.6 19 13.3 ESE 19 30 10 16 1018.6 1017.8 0.0
22/03:00pm 29.9 25.3 3.8 19 13.4 E 17 26 9 14 1018.8 1018.0 0.0
22/02:30pm 29.7 25.0 2.9 18 13.5 ESE 17 26 9 14 1019.0 1018.2 0.0
22/02:00pm 30.2 24.9 4.8 20 13.3 E 22 35 12 19 1019.3 1018.5 0.0
22/01:30pm 29.3 24.5 4.7 21 12.8 ESE 19 30 10 16 1019.8 1019.0 0.0
22/01:00pm 28.8 25.5 4.3 21 12.6 SE 11 26 6 14 1020.2 1019.4 0.0
22/12:30pm 28.7 24.2 4.2 21 12.6 ESE 17 32 9 17 1020.7 1019.9 0.0
22/12:00pm 27.2 22.7 4.3 23 11.6 ENE 17 32 9 17 1021.4 1020.7 0.0
22/11:30am 27.8 24.3 5.4 24 11.7 E 13 19 7 10 1021.9 1021.2 0.0
22/11:00am 25.8 21.6 3.7 24 11.0 ESE 15 24 8 13 1022.4 1021.7 0.0
22/10:30am 25.5 22.9 6.2 29 10.1 ESE 9 20 5 11 1022.8 1022.1 0.0
22/10:00am 24.7 22.5 7.8 34 9.0 ENE 9 19 5 10 1023.5 1022.7 0.0
22/09:30am 24.2 21.5 9.0 38 8.3 ESE 13 20 7 11 1024.0 1023.2 0.0
22/09:00am 22.2 19.5 9.0 43 7.1 E 13 22 7 12 1024.3 1023.5 0.0
22/08:30am 21.4 19.9 10.6 50 6.0 ESE 9 19 5 10 1024.5 1023.7 0.0
22/08:00am 20.6 19.2 11.0 54 5.3 E 9 17 5 9 1024.4 1023.6 0.0
22/07:30am 19.2 17.4 11.0 59 4.5 ESE 11 15 6 8 1024.4 1023.6 0.0
22/07:00am 17.9 17.0 11.2 65 3.7 SE 7 11 4 6 1024.2 1023.4 0.0
22/06:30am 16.4 17.0 12.0 75 2.4 CALM 0 0 0 0 1024.1 1023.3 0.0
22/06:00am 12.7 12.7 9.9 83 1.4 CALM 0 0 0 0 1023.8 1023.0 0.0
22/05:30am 11.9 10.7 9.5 85 1.2 SE 6 7 3 4 1023.5 1022.7 0.0
22/05:00am 12.4 12.4 9.8 84 1.3 CALM 0 0 0 0 1023.3 1022.5 0.0
22/04:30am 12.1 11.8 8.8 80 1.7 CALM 0 0 0 0 1022.8 1022.1 0.0
22/04:00am 13.9 13.0 10.7 81 1.7 SE 6 9 3 5 1022.7 1022.0 0.0
22/03:30am 13.4 12.1 9.1 75 2.2 SE 6 7 3 4 1022.4 1021.7 0.0
22/03:00am 15.2 14.3 10.8 75 2.3 ESE 6 9 3 5 1022.3 1021.6 0.0
22/02:30am 15.3 14.1 10.3 72 2.7 SSE 7 11 4 6 1022.3 1021.6 0.0
22/02:00am 15.6 14.2 9.7 68 3.1 S 7 9 4 5 1022.4 1021.7 0.0
22/01:30am 16.6 15.3 10.0 65 3.5 SE 7 13 4 7 1022.7 1022.0 0.0
22/01:00am 16.8 14.9 9.2 61 4.0 SSE 9 15 5 8 1022.8 1022.1 0.0
22/12:30am 17.3 15.8 9.0 58 4.3 ESE 7 11 4 6 1023.3 1022.5 0.0
22/12:00am 18.0 15.8 9.4 57 4.5 ESE 11 15 6 8 1023.5 1022.7 0.0
 
Date/Time
EST
Temp
°C
App
Temp
°C
Dew
Point
°C
Rel
Hum
%
Delta-T
°C
Wind Press
QNH
hPa
Press
MSL
hPa
Rain since
9am
mm
Dir  Spd
km/h
Gust
km/h
Spd
kts
Gust
kts
21/11:30pm 18.6 15.5 10.4 59 4.4 ESE 17 24 9 13 1023.8 1023.0 0.0
21/11:00pm 19.1 15.2 10.9 59 4.5 ESE 22 32 12 17 1023.7 1022.9 0.0
21/10:30pm 19.3 18.2 11.8 62 4.2 ESE 9 15 5 8 1023.5 1022.7 0.0
21/10:00pm 19.7 17.8 11.7 60 4.5 ESE 13 20 7 11 1023.3 1022.5 0.0
21/09:30pm 19.5 18.4 12.0 62 4.2 ESE 9 17 5 9 1023.2 1022.4 0.0
21/09:00pm 18.9 19.3 12.6 67 3.5 SSE 2 6 1 3 1023.0 1022.2 0.0
21/08:30pm 19.9 19.4 12.7 63 4.1 NE 7 13 4 7 1022.5 1021.8 0.0
21/08:00pm 20.6 19.4 12.8 61 4.5 E 11 15 6 8 1022.0 1021.3 0.0
21/07:30pm 20.8 20.0 13.0 61 4.5 ENE 9 15 5 8 1022.1 1021.4 0.0
21/07:00pm 21.1 19.3 13.3 61 4.5 ENE 15 20 8 11 1021.7 1021.0 0.0
21/06:30pm 21.9 19.6 13.0 57 5.1 ENE 17 24 9 13 1021.5 1020.8 0.0
21/06:00pm 22.6 18.7 13.4 56 5.3 NE 26 35 14 19 1020.6 1019.8 0.0
21/05:30pm 24.2 20.1 12.8 49 6.6 NE 26 39 14 21 1019.7 1018.9 0.0
21/05:00pm 25.6 22.5 12.1 43 7.8 NE 20 30 11 16 1019.1 1018.3 0.0
21/04:30pm 26.0 22.9 10.2 37 8.9 NE 17 28 9 15 1018.6 1017.8 0.0
21/04:00pm 26.0 21.9 8.0 32 9.7 NNE 19 28 10 15 1018.3 1017.5 0.0
21/03:30pm 26.2 22.5 10.0 36 9.1 NNE 20 28 11 15 1018.1 1017.3 0.0
21/03:00pm 28.6 25.9 8.8 29 11.0 N 13 17 7 9 1018.0 1017.2 0.0
21/02:30pm 27.0 24.5 9.8 34 9.6 NNE 13 20 7 11 1018.3 1017.5 0.0
21/02:00pm 27.3 24.4 9.6 33 9.9 ENE 15 28 8 15 1018.7 1017.9 0.0
21/01:30pm 28.9 27.7 9.6 30 10.9 E 6 9 3 5 1019.1 1018.3 0.0
21/01:00pm 27.4 26.2 9.7 33 9.9 NNE 6 13 3 7 1019.5 1018.7 0.0
21/12:30pm 27.5 25.8 9.8 33 9.9 W 9 20 5 11 1019.9 1019.1 0.0
21/12:00pm 28.4 26.9 10.6 33 10.1 E 9 15 5 8 1020.3 1019.5 0.0
21/11:30am 26.4 24.2 10.9 38 8.8 SE 13 24 7 13 1020.8 1020.1 0.0
21/11:00am 27.6 25.5 12.4 39 8.9 E 15 28 8 15 1021.3 1020.6 0.0
21/10:30am 26.0 23.4 12.1 42 8.0 ESE 17 26 9 14 1021.8 1021.1 0.0
21/10:00am 25.4 22.7 12.9 45 7.3 ESE 19 30 10 16 1022.2 1021.5 0.0
21/09:30am 24.9 22.1 12.5 46 7.2 ESE 19 28 10 15 1022.4 1021.7 0.0
21/09:00am 24.3 21.5 13.2 50 6.5 ESE 20 33 11 18 1022.4 1021.7 0.0
21/08:30am 23.0 19.4 12.9 53 5.8 ESE 24 37 13 20 1022.3 1021.6 0.0
21/08:00am 22.7 20.1 13.7 56 5.3 E 20 35 11 19 1022.2 1021.5 0.0
21/07:30am 21.8 20.7 14.4 63 4.4 ESE 13 19 7 10 1022.2 1021.5 0.0
21/07:00am 21.1 20.5 14.7 67 3.8 SE 11 20 6 11 1022.0 1021.3 0.0
21/06:30am 18.6 18.7 14.5 77 2.4 S 7 11 4 6 1021.8 1021.1 0.0
21/06:00am 17.1 17.1 13.6 80 2.0 S 6 7 3 4 1021.5 1020.8 0.0
21/05:30am 18.4 18.1 14.3 77 2.4 SE 9 13 5 7 1021.1 1020.4 0.0
21/05:00am 17.2 17.2 13.7 80 2.0 SSE 6 11 3 6 1020.8 1020.1 0.0
21/04:30am 17.4 17.2 13.5 78 2.2 SE 7 9 4 5 1020.4 1019.6 0.0
21/04:00am 18.0 17.8 13.7 76 2.5 SE 7 11 4 6 1020.1 1019.3 0.0
21/03:30am 18.8 18.1 14.3 75 2.6 ESE 11 17 6 9 1019.8 1019.0 0.0
21/03:00am 18.4 18.2 13.7 74 2.7 E 7 11 4 6 1019.8 1019.0 0.0
21/02:30am 19.2 18.1 14.2 73 2.9 ESE 13 17 7 9 1019.8 1019.0 0.0
21/02:00am 18.7 18.8 14.4 76 2.5 SE 7 11 4 6 1019.7 1018.9 0.0
21/01:30am 19.0 18.8 14.7 76 2.5 SE 9 15 5 8 1019.9 1019.1 0.0
21/01:00am 19.0 18.5 13.8 72 3.0 ESE 9 15 5 8 1020.2 1019.4 0.0
21/12:30am 19.4 18.6 12.9 66 3.7 SE 9 17 5 9 1020.3 1019.5 0.0
21/12:00am 19.9 18.9 13.4 66 3.7 ESE 11 17 6 9 1020.3 1019.5 0.0
 
Date/Time
EST
Temp
°C
App
Temp
°C
Dew
Point
°C
Rel
Hum
%
Delta-T
°C
Wind Press
QNH
hPa
Press
MSL
hPa
Rain since
9am
mm
Dir  Spd
km/h
Gust
km/h
Spd
kts
Gust
kts
20/11:30pm 18.0 16.8 9.6 58 4.5 SSW 6 7 3 4 1020.1 1019.3 0.0
20/11:00pm 18.9 17.6 9.9 56 4.8 E 7 9 4 5 1019.5 1018.7 0.0
20/10:30pm 19.8 18.5 9.1 50 5.7 SSE 6 7 3 4 1019.6 1018.8 0.0
20/10:00pm 19.9 18.4 8.3 47 6.1 NNE 6 11 3 6 1019.3 1018.5 0.0
20/09:30pm 21.4 19.4 7.3 40 7.3 NE 7 11 4 6 1019.0 1018.2 0.0
20/09:00pm 22.4 19.9 6.6 36 8.1 SE 9 15 5 8 1019.0 1018.2 0.0
20/08:30pm 22.7 20.2 6.5 35 8.4 ENE 9 15 5 8 1018.3 1017.5 0.0
20/08:00pm 24.8 22.1 5.6 29 9.9 NNE 9 13 5 7 1018.0 1017.2 0.0
20/07:30pm 23.7 21.5 5.1 30 9.4 E 6 9 3 5 1017.6 1016.8 0.0
20/07:00pm 22.7 21.3 3.3 28 9.4 CALM 0 0 0 0 1016.5 1015.8 0.0
20/06:30pm 25.3 22.1 -3.2 15 12.5 ESE 4 7 2 4 1016.0 1015.2 0.0
20/06:00pm 27.5 24.8 -5.6 11 14.1 CALM 0 0 0 0 1015.5 1014.7 0.0
20/05:30pm 30.4 26.8 -7.5 8 16.1 S 4 9 2 5 1015.2 1014.4 0.0
20/05:00pm 31.2 27.1 -6.9 8 16.4 SSW 7 15 4 8 1014.9 1014.1 0.0
20/04:30pm 31.7 27.2 -6.6 8 16.7 SE 9 17 5 9 1014.6 1013.8 0.0
20/04:00pm 31.6 26.6 -8.3 7 16.9 SSW 11 17 6 9 1014.4 1013.6 0.0
20/03:30pm 31.3 27.0 -8.6 7 16.7 E 7 19 4 10 1014.4 1013.6 0.0
20/03:00pm 31.3 26.8 -6.8 8 16.5 SE 9 13 5 7 1014.5 1013.7 0.0
20/02:30pm 31.6 27.3 -5.1 9 16.4 NNE 9 15 5 8 1014.8 1014.0 0.0
20/02:00pm 31.8 27.1 -4.9 9 16.5 SE 11 17 6 9 1015.1 1014.3 0.0
20/01:30pm 31.4 26.3 -5.2 9 16.3 S 13 22 7 12 1015.4 1014.6 0.0
20/01:00pm 30.8 25.3 -5.7 9 16.0 SE 15 24 8 13 1015.9 1015.1 0.0
20/12:30pm 30.4 26.1 -4.6 10 15.6 SSE 9 20 5 11 1016.3 1015.6 0.0
20/12:00pm 30.1 25.3 -6.2 9 15.7 S 11 20 6 11 1016.8 1016.1 0.0
20/11:30am 30.1 25.4 -4.8 10 15.5 SE 11 20 6 11 1017.2 1016.5 0.0
20/11:00am 29.9 24.8 -5.0 10 15.4 ESE 13 20 7 11 1017.7 1016.9 0.0
20/10:30am 28.8 23.1 -7.2 9 15.1 SSE 15 22 8 12 1018.0 1017.2 0.0
20/10:00am 28.2 23.0 0.0 16 13.4 SSE 17 28 9 15 1018.1 1017.3 0.0
20/09:30am 28.2 25.0 5.1 23 12.0 SE 11 20 6 11 1018.4 1017.6 0.0
20/09:00am 26.0 25.4 13.5 46 7.4 SE 9 15 5 8 1018.5 1017.7 1.6
20/08:30am 22.9 24.7 19.5 81 2.2 ESE 9 13 5 7 1018.6 1017.8 1.6
20/08:15am 21.2 24.1 21.0 99 0.1 E 7 11 4 6 1018.6 1017.8 1.6
20/08:07am 20.1 22.6 19.9 99 0.1 E 6 9 3 5 1018.6 1017.8 1.6
20/08:00am 19.5 21.6 19.3 99 0.1 E 7 9 4 5 1018.6 1017.8 1.6

Other formats

Comma delimited format used in spreadsheet applications
http://www.bom.gov.au/fwo/IDQ60801/IDQ60801.94376.axf

JavaScript Object Notation format (JSON) in row-major order
http://www.bom.gov.au/fwo/IDQ60801/IDQ60801.94376.json

Data quality

Most of these data are generated automatically and are frequently updated. Quality checks on data are not normally performed. It is possible for incorrect values to appear. Refer to information at About Latest Weather Observations and please check the disclaimer before using these data.